Home > Products > Valid Products > MTR

000
SAUS41 KOKX 241255
MTRMTP
METAR KMTP 241254Z AUTO 32005KT 23/19 A2982 RMK AO1 SLP097 T02280194





000
SAUS41 KOKX 241252
MTRNYC
METAR KNYC 241251Z AUTO VRB03KT 10SM FEW021 BKN037 23/18 A2988 RMK
AO2 SLP109 T02330178





000
SAUS41 KOKX 241155
MTRMTP
METAR KMTP 241154Z AUTO 30005KT 22/20 A2981 RMK AO1 SLP093 70001
T02220200 10222 20206 53007





000
SAUS41 KOKX 241153
MTRNYC
METAR KNYC 241151Z AUTO VRB03KT 10SM FEW022 SCT032 22/18 A2987 RMK
AO2 SLP106 70019 T02220183 10233 20222 53008





000
SAUS41 KOKX 241128
MTRNYC
SPECI KNYC 241126Z AUTO VRB04KT 10SM SCT024 SCT032 BKN090 22/18
A2987 RMK AO2 T02220178





000
SAUS41 KOKX 241055
MTRMTP
METAR KMTP 241054Z AUTO 31004KT 21/20 A2979 RMK AO1 SLP089 T02110200





000
SAUS41 KOKX 241053
MTRNYC
METAR KNYC 241051Z AUTO VRB04KT 10SM BKN022 BKN060 22/18 A2987 RMK
AO2 SLP103 T02220178





000
SAUS41 KOKX 240955
MTRMTP
METAR KMTP 240954Z AUTO 32004KT 21/19 A2979 RMK AO1 SLP089 T02060194





000
SAUS41 KOKX 240952
MTRNYC
METAR KNYC 240951Z AUTO VRB03KT 10SM OVC055 23/17 A2985 RMK AO2
SLP098 T02280172





000
SAUS41 KOKX 240855
MTRMTP
METAR KMTP 240854Z AUTO 31003KT 21/20 A2979 RMK AO1 SLP086 T02110200
51000





000
SAUS41 KOKX 240852
MTRNYC
METAR KNYC 240851Z AUTO 10SM OVC032 23/18 A2985 RMK AO2 SLP097
T02280178 53005





000
SAUS41 KOKX 240755
MTRMTP
METAR KMTP 240754Z AUTO 28004KT 22/21 A2978 RMK AO1 SLP084 T02220206





000
SAUS41 KOKX 240752
MTRNYC
METAR KNYC 240751Z AUTO 10SM BKN030 23/19 A2983 RMK AO2 SLP093
T02280189





000
SAUS41 KOKX 240655
MTRMTP
METAR KMTP 240654Z AUTO 27003KT 22/21 A2979 RMK AO1 SLP088 T02170206





000
SAUS41 KOKX 240653
MTRNYC
METAR KNYC 240651Z AUTO VRB03KT 10SM SCT070 23/19 A2983 RMK AO2
SLP092 T02330194





000
SAUS41 KOKX 240555
MTRMTP
METAR KMTP 240554Z AUTO 00000KT 22/21 A2979 RMK AO1 SLP086 60001
T02220206 10239 20217 58015





000
SAUS41 KOKX 240552
MTRNYC
METAR KNYC 240551Z AUTO 00000KT 10SM BKN065 23/20 A2983 RMK AO2
SLP092 60019 T02330200 10300 20222 55006





000
SAUS41 KOKX 240455
MTRMTP
METAR KMTP 240454Z AUTO 00000KT 22/20 A2980 RMK AO1 SLP090 P0001
T02170200 402610217





000
SAUS41 KOKX 240454
MTRNYC
METAR KNYC 240451Z AUTO VRB03KT 10SM CLR 24/21 A2983 RMK AO2 SLP090
T02390206 403110222





000
SAUS41 KOKX 240355
MTRMTP
METAR KMTP 240354Z AUTO 25008KT 24/21 A2983 RMK AO1 SLP101 T02390211





000
SAUS41 KOKX 240352
MTRNYC
METAR KNYC 240351Z AUTO 00000KT 4SM BR SCT045 BKN120 23/22 A2985 RMK
AO2 RAE16 SLP096 P0000 T02330222





000
SAUS41 KOKX 240255
MTRMTP
METAR KMTP 240254Z AUTO 20007KT 23/21 A2983 RMK AO1 SLP101 T02280211
58002





000
SAUS41 KOKX 240252
MTRNYC
METAR KNYC 240251Z AUTO 25004KT 6SM -RA BR SCT041 BKN060 BKN080
24/22 A2985 RMK AO2 RAE0152B14 SLP099 P0001 60019 T02390222 50013





000
SAUS41 KOKX 240155
MTRMTP
METAR KMTP 240154Z AUTO 20007KT 23/21 A2985 RMK AO1 SLP107 T02280211





000
SAUS41 KOKX 240153
MTRNYC
METAR KNYC 240151Z AUTO 28005KT 5SM -RA BR FEW055 SCT075 BKN120
23/22 A2987 RMK AO2 SLP105 P0010 T02330217





000
SAUS41 KOKX 240110
MTRNYC
SPECI KNYC 240109Z AUTO VRB03KT 3SM -RA BR SCT038 SCT049 BKN075
23/21 A2984 RMK AO2 P0010 T02280211





000
SAUS41 KOKX 240055
MTRMTP
METAR KMTP 240054Z AUTO 20007KT 23/21 A2984 RMK AO1 SLP106 T02280206





000
SAUS41 KOKX 240052
MTRNYC
METAR KNYC 240051Z AUTO VRB04G22KT 1SM +RA SCT026 SCT047 BKN110
24/21 A2986 RMK AO2 RAB45 SLP100 P0008 T02440211





000
SAUS41 KOKX 232355
MTRMTP
METAR KMTP 232354Z AUTO 20007KT 23/20 A2984 RMK AO1 SLP103 T02280200
10261 20228 56007





000
SAUS41 KOKX 232352
MTRNYC
METAR KNYC 232351Z AUTO 24007KT 200V270 10SM FEW047 SCT060 BKN080
30/21 A2981 RMK AO2 SLP085 T03000211 10311 20289 55004





000
SAUS41 KOKX 232255
MTRMTP
METAR KMTP 232254Z AUTO 20010G18KT 23/20 A2984 RMK AO1 SLP103
T02330200





000
SAUS41 KOKX 232252
MTRNYC
METAR KNYC 232251Z AUTO VRB04KT 9SM FEW080 FEW110 29/22 A2979 RMK
AO2 SLP079 T02890217





000
SAUS41 KOKX 232155
MTRMTP
METAR KMTP 232154Z AUTO 20010G16KT 24/21 A2983 RMK AO1 SLP102
T02390206





000
SAUS41 KOKX 232152
MTRNYC
METAR KNYC 232151Z AUTO 10SM FEW050 SCT070 BKN085 29/22 A2981 RMK
AO2 SLP084 T02940222





000
SAUS41 KOKX 232055
MTRMTP
METAR KMTP 232054Z AUTO 20009G18KT 24/21 A2986 RMK AO1 SLP110
T02440211 58019





000
SAUS41 KOKX 232053
MTRNYC
METAR KNYC 232051Z AUTO 10SM BKN041 29/22 A2982 RMK AO2 SLP089
T02940222 56025





000
SAUS41 KOKX 231955
MTRMTP
METAR KMTP 231954Z AUTO 20008G16KT 25/21 A2988 RMK AO1 SLP117
T02500211





000
SAUS41 KOKX 231952
MTRNYC
METAR KNYC 231951Z AUTO VRB05KT 10SM BKN041 30/22 A2985 RMK AO2
SLP096 T03000222





000
SAUS41 KOKX 231855
MTRMTP
METAR KMTP 231854Z AUTO 20011G19KT 25/21 A2990 RMK AO1 SLP125
T02500211





000
SAUS41 KOKX 231853
MTRNYC
METAR KNYC 231851Z AUTO VRB03G16KT 10SM BKN037 29/22 A2988 RMK AO2
SLP107 T02940217





000
SAUS41 KOKX 231755
MTRMTP
METAR KMTP 231754Z AUTO 21008KT 26/21 A2991 RMK AO1 SLP129 T02560206
10261 20222 56019





000
SAUS41 KOKX 231752
MTRNYC
METAR KNYC 231751Z AUTO 22006KT 9SM BKN034 29/22 A2990 RMK AO2
SLP114 T02940222 10306 20239 56022





000
SAUS41 KOKX 231655
MTRMTP
METAR KMTP 231654Z AUTO 20009G16KT 26/21 A2993 RMK AO1 SLP134
T02610211





000
SAUS41 KOKX 231652
MTRNYC
METAR KNYC 231651Z AUTO VRB05KT 9SM FEW033 30/22 A2991 RMK AO2
SLP118 T03000217





000
SAUS41 KOKX 231555
MTRMTP
METAR KMTP 231554Z AUTO 21007KT 26/21 A2995 RMK AO1 SLP140 T02560211





000
SAUS41 KOKX 231552
MTRNYC
METAR KNYC 231551Z AUTO VRB05KT 9SM CLR 29/22 A2994 RMK AO2 SLP127
T02940217





000
SAUS41 KOKX 231455
MTRMTP
METAR KMTP 231454Z AUTO 21006KT 25/21 A2997 RMK AO1 SLP148 T02500211
58013





000
SAUS41 KOKX 231453
MTRNYC
METAR KNYC 231451Z AUTO VRB06KT 10SM CLR 28/21 A2996 RMK AO2 SLP136
T02780206 58020





000
SAUS41 KOKX 231355
MTRMTP
METAR KMTP 231354Z AUTO 23006KT 25/21 A2999 RMK AO1 SLP155 T02500206





000
SAUS41 KOKX 231352
MTRNYC
METAR KNYC 231351Z AUTO VRB06KT 10SM CLR 26/19 A2998 RMK AO2 SLP143
T02610194





000
SAUS41 KOKX 231255
MTRMTP
METAR KMTP 231254Z AUTO 21008KT 180V250 23/21 A3000 RMK AO1 SLP159
T02330206





000
SAUS41 KOKX 231252
MTRNYC
METAR KNYC 231251Z AUTO VRB05KT 10SM FEW090 SCT110 25/19 A3001 RMK
AO2 SLP151 T02500194





000
SAUS41 KOKX 231156
MTRMTP
METAR KMTP 231154Z AUTO 21007KT 190V250 22/21 A3001 RMK AO1 SLP161
T02220211 10222 20217 55002





000
SAUS41 KOKX 231152
MTRNYC
METAR KNYC 231151Z AUTO VRB03KT 10SM CLR 24/18 A3002 RMK AO2 SLP156
T02390183 10244 20222 53002





000
SAUS41 KOKX 231055
MTRMTP
METAR KMTP 231054Z AUTO 22007KT 22/21 A3000 RMK AO1 SLP159 T02170206





000
SAUS41 KOKX 231052
MTRNYC
METAR KNYC 231051Z AUTO VRB03KT 10SM FEW095 23/17 A3001 RMK AO2
SLP152 T02280172





000
SAUS41 KOKX 230955
MTRMTP
METAR KMTP 230954Z AUTO 21007KT 22/21 A3000 RMK AO1 SLP158 T02170206





000
SAUS41 KOKX 230952
MTRNYC
METAR KNYC 230951Z AUTO VRB03KT 10SM FEW100 23/17 A3000 RMK AO2
SLP149 T02280172





000
SAUS41 KOKX 230944
MTRNYC
SPECI KNYC 230943Z AUTO 24006KT 10SM FEW002 FEW100 23/17 A3000 RMK
AO2 T02280167





000
SAUS41 KOKX 230855
MTRMTP
METAR KMTP 230854Z AUTO 22005KT 22/20 A3001 RMK AO1 SLP163 T02170200
55008





000
SAUS41 KOKX 230853
MTRNYC
METAR KNYC 230851Z AUTO VRB04KT 10SM FEW100 23/17 A3002 RMK AO2
SLP154 T02280172 56012





000
SAUS41 KOKX 230755
MTRMTP
METAR KMTP 230754Z AUTO 22007G16KT 22/19 A3001 RMK AO1 SLP162
T02220194





000
SAUS41 KOKX 230752
MTRNYC
METAR KNYC 230751Z AUTO 26006G16KT 10SM CLR 23/17 A3003 RMK AO2
SLP157 T02330167





000
SAUS41 KOKX 230655
MTRMTP
METAR KMTP 230654Z AUTO 23007KT 22/19 A3002 RMK AO1 SLP166 T02220189





000
SAUS41 KOKX 230652
MTRNYC
METAR KNYC 230651Z AUTO VRB04KT 10SM CLR 24/17 A3004 RMK AO2 SLP161
T02390167





000
SAUS41 KOKX 230555
MTRMTP
METAR KMTP 230554Z AUTO 23010G18KT 22/19 A3004 RMK AO1 SLP172
T02220189 10228 20222 58009





000
SAUS41 KOKX 230552
MTRNYC
METAR KNYC 230551Z AUTO 24004KT 10SM CLR 24/17 A3005 RMK AO2 SLP166
T02440167 10267 20239 58012





000
SAUS41 KOKX 230455
MTRMTP
METAR KMTP 230454Z AUTO 22007G17KT 22/19 A3005 RMK AO1 SLP175
T02220194 402830178





000
SAUS41 KOKX 230453
MTRNYC
METAR KNYC 230451Z AUTO VRB05KT 10SM CLR 24/17 A3006 RMK AO2 SLP169
T02440172 403000217





000
SAUS41 KOKX 230355
MTRMTP
METAR KMTP 230354Z AUTO 22008G16KT 22/18 A3006 RMK AO1 SLP179
T02220183





000
SAUS41 KOKX 230355
MTRMTP
METAR KMTP 230354Z AUTO 22008G16KT 22/18 A3006 RMK AO1 SLP179
T02220183





000
SAUS41 KOKX 230353
MTRNYC
METAR KNYC 230351Z AUTO 23006G16KT 10SM CLR 25/17 A3008 RMK AO2
SLP175 T02500172





000
SAUS41 KOKX 230353
MTRNYC
METAR KNYC 230351Z AUTO 23006G16KT 10SM CLR 25/17 A3008 RMK AO2
SLP175 T02500172





000
SAUS41 KOKX 230255
MTRMTP
METAR KMTP 230254Z AUTO 22008G19KT 23/18 A3007 RMK AO1 SLP181
T02280178 58010





000
SAUS41 KOKX 230252
MTRNYC
METAR KNYC 230251Z AUTO VRB04KT 10SM CLR 26/18 A3008 RMK AO2 SLP177
T02560178 55002





000
SAUS41 KOKX 230155
MTRMTP
METAR KMTP 230154Z AUTO 22009G15KT 22/18 A3009 RMK AO1 SLP187
T02220183





000
SAUS41 KOKX 230153
MTRNYC
METAR KNYC 230151Z AUTO VRB04KT 10SM CLR 26/19 A3008 RMK AO2 SLP177
T02560189





000
SAUS41 KOKX 230055
MTRMTP
METAR KMTP 230054Z AUTO 22008KT 23/17 A3009 RMK AO1 SLP190 T02280172





000
SAUS41 KOKX 230052
MTRNYC
METAR KNYC 230051Z AUTO VRB04KT 10SM CLR 26/19 A3009 RMK AO2 SLP178
T02610189





000
SAUS41 KOKX 222355
MTRMTP
METAR KMTP 222354Z AUTO 22007KT 23/18 A3010 RMK AO1 SLP192 T02280183
10283 20228 55001





000
SAUS41 KOKX 222352
MTRNYC
METAR KNYC 222351Z AUTO 17004KT 10SM CLR 27/19 A3009 RMK AO2 SLP180
T02670189 10300 20267 55001





000
SAUS41 KOKX 222255
MTRMTP
METAR KMTP 222254Z AUTO 22006KT 24/19 A3009 RMK AO1 SLP190 T02390189





000
SAUS41 KOKX 222253
MTRNYC
METAR KNYC 222251Z AUTO 17004KT 10SM FEW055 27/19 A3009 RMK AO2
SLP180 T02720189





000
SAUS41 KOKX 222155
MTRMTP
METAR KMTP 222154Z AUTO 21007KT 25/19 A3010 RMK AO1 SLP192 T02500194





000
SAUS41 KOKX 222152
MTRNYC
METAR KNYC 222151Z AUTO 00000KT 10SM FEW050 27/19 A3009 RMK AO2
SLP179 T02720189





000
SAUS41 KOKX 222055
MTRMTP
METAR KMTP 222054Z AUTO 20007KT 25/19 A3010 RMK AO1 SLP193 T02500194
58013





000
SAUS41 KOKX 222052
MTRNYC
METAR KNYC 222051Z AUTO 17006KT 10SM FEW045 28/19 A3009 RMK AO2
SLP181 T02830194 57016





000
SAUS41 KOKX 221955
MTRMTP
METAR KMTP 221954Z AUTO 21007KT 25/19 A3011 RMK AO1 SLP195 T02500194





000
SAUS41 KOKX 221952
MTRNYC
METAR KNYC 221951Z AUTO VRB04KT 10SM FEW042 29/19 A3011 RMK AO2
SLP184 T02890194





000
SAUS41 KOKX 221855
MTRMTP
METAR KMTP 221854Z AUTO 20007KT 27/19 A3013 RMK AO1 SLP204 T02670194





000
SAUS41 KOKX 221852
MTRNYC
METAR KNYC 221851Z AUTO 10SM CLR 29/19 A3013 RMK AO2 SLP194
T02940194





000
SAUS41 KOKX 221755
MTRMTP
METAR KMTP 221754Z AUTO 22004KT 28/20 A3014 RMK AO1 SLP206 T02780200
10283 20222 56008





000
SAUS41 KOKX 221752
MTRNYC
METAR KNYC 221751Z AUTO 00000KT 10SM SCT045 29/19 A3014 RMK AO2
SLP197 T02890194 10294 20233 56013





000
SAUS41 KOKX 221655
MTRMTP
METAR KMTP 221654Z AUTO VRB03KT 27/20 A3015 RMK AO1 SLP209 T02720200





000
SAUS41 KOKX 221652
MTRNYC
METAR KNYC 221651Z AUTO VRB04KT 10SM SCT044 BKN055 29/18 A3015 RMK
AO2 SLP200 T02890183





000
SAUS41 KOKX 221555
MTRMTP
METAR KMTP 221554Z AUTO VRB03KT 27/19 A3015 RMK AO1 SLP210 T02720189





000
SAUS41 KOKX 221552
MTRNYC
METAR KNYC 221551Z AUTO VRB05KT 10SM FEW039 28/19 A3017 RMK AO2
SLP206 T02830189





000
SAUS41 KOKX 221455
MTRMTP
METAR KMTP 221454Z AUTO 27005KT 26/18 A3016 RMK AO1 SLP213 T02560183
55007





000
SAUS41 KOKX 221453
MTRNYC
METAR KNYC 221451Z AUTO VRB03KT 9SM CLR 27/19 A3018 RMK AO2 SLP210
T02670189 58009





000
SAUS41 KOKX 221355
MTRMTP
METAR KMTP 221354Z AUTO 26006KT 24/17 A3016 RMK AO1 SLP213 T02440172





000
SAUS41 KOKX 221353
MTRNYC
METAR KNYC 221351Z AUTO 00000KT 9SM CLR 26/18 A3019 RMK AO2 SLP212
T02560178 $





000
SAUS41 KOKX 221255
MTRMTP
METAR KMTP 221254Z AUTO 25004KT 24/17 A3017 RMK AO1 SLP218 T02390172





000
SAUS41 KOKX 221252
MTRNYC
METAR KNYC 221251Z AUTO 00000KT 9SM CLR 24/18 A3020 RMK AO2 SLP217
T02440178 $





000
SAUS41 KOKX 221155
MTRMTP
METAR KMTP 221154Z AUTO 23004KT 22/18 A3018 RMK AO1 SLP220 T02220183
10222 20178 51003





000
SAUS41 KOKX 221152
MTRNYC
METAR KNYC 221151Z AUTO 00000KT 10SM CLR 23/17 A3021 RMK AO2 SLP219
T02330172 10233 20217 51005 $





000
SAUS41 KOKX 221055
MTRMTP
METAR KMTP 221054Z AUTO 00000KT 21/19 A3018 RMK AO1 SLP219 T02060189





000
SAUS41 KOKX 221052
MTRNYC
METAR KNYC 221051Z AUTO VRB03KT 10SM CLR 22/16 A3020 RMK AO2 SLP218
T02170161 $





000
SAUS41 KOKX 220955
MTRMTP
METAR KMTP 220954Z AUTO 00000KT 19/18 A3018 RMK AO1 SLP220 T01940183





000
SAUS41 KOKX 220952
MTRNYC
METAR KNYC 220951Z AUTO VRB04KT 10SM CLR 22/16 A3020 RMK AO2 SLP217
T02170156 $





000
SAUS41 KOKX 220855
MTRMTP
METAR KMTP 220854Z AUTO 00000KT 19/18 A3017 RMK AO1 SLP217 T01890178
58001





000
SAUS41 KOKX 220852
MTRNYC
METAR KNYC 220851Z AUTO 27003KT 10SM CLR 22/16 A3019 RMK AO2 SLP213
T02170156 55000 $





000
SAUS41 KOKX 220755
MTRMTP
METAR KMTP 220754Z AUTO 24003KT 19/18 A3018 RMK AO1 SLP219 T01940183





000
SAUS41 KOKX 220753
MTRNYC
METAR KNYC 220751Z AUTO 00000KT 10SM CLR 22/16 A3019 RMK AO2 SLP212
T02220156 $





000
SAUS41 KOKX 220655
MTRMTP
METAR KMTP 220654Z AUTO 00000KT 19/18 A3018 RMK AO1 SLP218 T01940178





000
SAUS41 KOKX 220652
MTRNYC
METAR KNYC 220651Z AUTO VRB04KT 10SM CLR 22/15 A3019 RMK AO2 SLP213
T02220150 $





000
SAUS41 KOKX 220555
MTRMTP
METAR KMTP 220554Z AUTO 00000KT 19/18 A3018 RMK AO1 SLP218 T01940178
10211 20189 56006





000
SAUS41 KOKX 220553
MTRNYC
METAR KNYC 220551Z AUTO 25006KT 10SM CLR 22/16 A3019 RMK AO2 SLP214
T02220161 10244 20222 55004 $





000
SAUS41 KOKX 220455
MTRMTP
METAR KMTP 220454Z AUTO 00000KT 19/18 A3018 RMK AO1 SLP220 T01940178
402500178





000
SAUS41 KOKX 220452
MTRNYC
METAR KNYC 220451Z AUTO VRB03KT 10SM CLR 22/16 A3019 RMK AO2 SLP213
T02220161 402940194 $





000
SAUS41 KOKX 220355
MTRMTP
METAR KMTP 220354Z AUTO 00000KT 19/18 A3019 RMK AO1 SLP222 T01940178





000
SAUS41 KOKX 220353
MTRNYC
METAR KNYC 220351Z AUTO 00000KT 10SM CLR 23/17 A3020 RMK AO2 SLP215
T02280167 $





000
SAUS41 KOKX 220255
MTRMTP
METAR KMTP 220254Z AUTO 00000KT 19/18 A3020 RMK AO1 SLP225 T01940178
52002





000
SAUS41 KOKX 220253
MTRNYC
METAR KNYC 220251Z AUTO 00000KT 10SM CLR 23/16 A3020 RMK AO2 SLP217
T02330161 51007 $





000
SAUS41 KOKX 220155
MTRMTP
METAR KMTP 220154Z AUTO 00000KT 20/17 A3020 RMK AO1 SLP224 T02000172





000
SAUS41 KOKX 220152
MTRNYC
METAR KNYC 220151Z AUTO 00000KT 10SM CLR 23/16 A3020 RMK AO2 SLP217
T02330161 $





000
SAUS41 KOKX 220055
MTRMTP
METAR KMTP 220054Z AUTO 00000KT 20/17 A3019 RMK AO1 SLP223 T02000172





000
SAUS41 KOKX 220052
MTRNYC
METAR KNYC 220051Z AUTO 00000KT 10SM CLR 23/17 A3019 RMK AO2 SLP213
T02330172 $





000
SAUS41 KOKX 212356
MTRMTP
METAR KMTP 212354Z AUTO VRB03KT 21/17 A3019 RMK AO1 SLP223 T02110167
10250 20211 51008





000
SAUS41 KOKX 212352
MTRNYC
METAR KNYC 212351Z AUTO VRB03KT 10SM CLR 24/17 A3018 RMK AO2 SLP212
T02440167 10294 20239 50007 $





000
SAUS41 KOKX 212255
MTRMTP
METAR KMTP 212254Z AUTO VRB03KT 22/17 A3019 RMK AO1 SLP222 T02220172





000
SAUS41 KOKX 212252
MTRNYC
METAR KNYC 212251Z AUTO 9SM OVC110 26/17 A3018 RMK AO2 SLP212
T02560167 $





000
SAUS41 KOKX 212155
MTRMTP
METAR KMTP 212154Z AUTO VRB04KT 23/17 A3017 RMK AO1 SLP216 T02330172





000
SAUS41 KOKX 212152
MTRNYC
METAR KNYC 212151Z AUTO 00000KT 9SM OVC100 26/17 A3017 RMK AO2
SLP206 T02610167 $





000
SAUS41 KOKX 212055
MTRMTP
METAR KMTP 212054Z AUTO 18004KT 24/18 A3017 RMK AO1 SLP215 T02390178
56009





000
SAUS41 KOKX 212052
MTRNYC
METAR KNYC 212051Z AUTO VRB03KT 9SM CLR 27/17 A3016 RMK AO2 SLP203
T02720167 56012 $





000
SAUS41 KOKX 211955
MTRMTP
METAR KMTP 211954Z AUTO 17004KT 24/17 A3018 RMK AO1 SLP218 T02440172





000
SAUS41 KOKX 211952
MTRNYC
METAR KNYC 211951Z AUTO 03004KT 10SM CLR 29/14 A3017 RMK AO2 SLP205
T02940139 $





000
SAUS41 KOKX 211855
MTRMTP
METAR KMTP 211854Z AUTO 00000KT 24/17 A3018 RMK AO1 SLP219 T02440172





000
SAUS41 KOKX 211853
MTRNYC
METAR KNYC 211851Z AUTO 05003KT 10SM CLR 28/14 A3018 RMK AO2 SLP209
T02830144 $





000
SAUS41 KOKX 211755
MTRMTP
METAR KMTP 211754Z AUTO 02004KT 24/16 A3019 RMK AO1 SLP224 T02440156
10250 20183 56006





000
SAUS41 KOKX 211752
MTRNYC
METAR KNYC 211751Z AUTO 00000KT 10SM CLR 28/17 A3019 RMK AO2 SLP215
T02830167 10283 20206 58010





000
SAUS41 KOKX 211655
MTRMTP
METAR KMTP 211654Z AUTO 05004KT 23/15 A3020 RMK AO1 SLP224 T02330150





000
SAUS41 KOKX 211653
MTRNYC
METAR KNYC 211651Z AUTO 00000KT 10SM FEW045 27/15 A3021 RMK AO2
SLP220 T02720150





000
SAUS41 KOKX 211555
MTRMTP
METAR KMTP 211554Z AUTO VRB03KT 22/16 A3021 RMK AO1 SLP228 T02220156





000
SAUS41 KOKX 211552
MTRNYC
METAR KNYC 211551Z AUTO 31003KT 10SM CLR 26/16 A3022 RMK AO2 SLP223
T02610156





000
SAUS41 KOKX 211455
MTRMTP
METAR KMTP 211454Z AUTO 34003KT 21/16 A3021 RMK AO1 SLP230 T02110156
53003





000
SAUS41 KOKX 211452
MTRNYC
METAR KNYC 211451Z AUTO 05004KT 10SM CLR 24/16 A3023 RMK AO2 SLP226
T02440156 57000





000
SAUS41 KOKX 211355
MTRMTP
METAR KMTP 211354Z AUTO 34006KT 19/16 A3020 RMK AO1 SLP227 T01940156





000
SAUS41 KOKX 211352
MTRNYC
METAR KNYC 211351Z AUTO 03004KT 10SM CLR 23/16 A3022 RMK AO2 SLP226
T02330156





    US Dept of Commerce
    National Oceanic and Atmospheric Administration
    National Weather Service
    1325 East West Highway
    Silver Spring, MD 20910
    Page Author: NWS Internet Services Team
Disclaimer
Information Quality
Credits
Glossary
Privacy Policy
Freedom of Information Act (FOIA)
About Us
Career Opportunities